Terminal Aerodrome Forecast
Issued by NWS

Home | Current Version | Previous Version | Text Only | Print | Product List | Glossary On
Versions: 1 2 3 4 5 6 7 8 9 10 11 12 13 14 15 16 17 18 19 20 21 22 23 24 25 26 27 28 29 30 31 32 33 34 35 36
962
FTUS43 KSGF 191724 AAC
TAFJLN
TAF AMD
KJLN 191724Z 1917/2018 17007KT P6SM OVC006
     FM192200 16006KT P6SM BKN010
     FM200100 14004KT P6SM OVC008
     FM200300 15004KT 5SM BR OVC008
     FM200600 14004KT 5SM BR OVC003
     FM201400 14005KT 6SM BR OVC008=

USA.gov is the U.S. government's official web portal to all federal, state and local government web resources and services.